sensor_id;sensor_type;location;lat;lon;timestamp;P1;durP1;ratioP1;P2;durP2;ratioP2
54849;SDS011;47660;51.334;12.396;2022-12-26T00:00:33;1.85;;;1.10;;
54849;SDS011;47660;51.334;12.396;2022-12-26T00:02:58;2.17;;;1.27;;
54849;SDS011;47660;51.334;12.396;2022-12-26T00:05:25;3.92;;;1.23;;
54849;SDS011;47660;51.334;12.396;2022-12-26T00:07:50;1.63;;;1.13;;
54849;SDS011;47660;51.334;12.396;2022-12-26T00:10:16;2.85;;;1.50;;
54849;SDS011;47660;51.334;12.396;2022-12-26T00:12:44;2.30;;;1.30;;
54849;SDS011;47660;51.334;12.396;2022-12-26T00:15:11;3.53;;;1.77;;
54849;SDS011;47660;51.334;12.396;2022-12-26T00:17:39;3.35;;;1.52;;
54849;SDS011;47660;51.334;12.396;2022-12-26T00:20:05;2.42;;;1.50;;
54849;SDS011;47660;51.334;12.396;2022-12-26T00:22:31;1.98;;;1.35;;
54849;SDS011;47660;51.334;12.396;2022-12-26T00:24:58;1.73;;;1.52;;
54849;SDS011;47660;51.334;12.396;2022-12-26T00:27:24;3.83;;;1.42;;
54849;SDS011;47660;51.334;12.396;2022-12-26T00:29:49;2.97;;;1.40;;
54849;SDS011;47660;51.334;12.396;2022-12-26T00:32:15;2.03;;;1.65;;
54849;SDS011;47660;51.334;12.396;2022-12-26T00:34:40;2.95;;;1.30;;
54849;SDS011;47660;51.334;12.396;2022-12-26T00:37:08;2.90;;;1.58;;
54849;SDS011;47660;51.334;12.396;2022-12-26T00:39:34;2.13;;;1.30;;
54849;SDS011;47660;51.334;12.396;2022-12-26T00:41:59;3.70;;;1.40;;
54849;SDS011;47660;51.334;12.396;2022-12-26T00:44:27;2.58;;;1.40;;
54849;SDS011;47660;51.334;12.396;2022-12-26T00:46:52;2.17;;;1.55;;
54849;SDS011;47660;51.334;12.396;2022-12-26T00:49:18;1.95;;;1.23;;
54849;SDS011;47660;51.334;12.396;2022-12-26T00:51:43;1.58;;;1.27;;
54849;SDS011;47660;51.334;12.396;2022-12-26T00:54:13;1.98;;;1.58;;
54849;SDS011;47660;51.334;12.396;2022-12-26T00:56:39;1.83;;;1.38;;
54849;SDS011;47660;51.334;12.396;2022-12-26T00:59:04;2.53;;;1.52;;
54849;SDS011;47660;51.334;12.396;2022-12-26T01:01:30;3.03;;;1.60;;
54849;SDS011;47660;51.334;12.396;2022-12-26T01:04:00;5.80;;;1.63;;
54849;SDS011;47660;51.334;12.396;2022-12-26T01:06:25;1.77;;;1.60;;
54849;SDS011;47660;51.334;12.396;2022-12-26T01:08:51;2.20;;;1.67;;
54849;SDS011;47660;51.334;12.396;2022-12-26T01:11:19;6.43;;;1.90;;
54849;SDS011;47660;51.334;12.396;2022-12-26T01:14:04;4.78;;;1.70;;
54849;SDS011;47660;51.334;12.396;2022-12-26T01:16:31;3.85;;;1.98;;
54849;SDS011;47660;51.334;12.396;2022-12-26T01:18:58;3.38;;;1.55;;
54849;SDS011;47660;51.334;12.396;2022-12-26T01:21:24;2.92;;;1.63;;
54849;SDS011;47660;51.334;12.396;2022-12-26T01:23:49;3.10;;;1.90;;
54849;SDS011;47660;51.334;12.396;2022-12-26T01:26:17;3.40;;;1.75;;
54849;SDS011;47660;51.334;12.396;2022-12-26T01:28:42;2.55;;;1.60;;
54849;SDS011;47660;51.334;12.396;2022-12-26T01:31:10;3.47;;;1.63;;
54849;SDS011;47660;51.334;12.396;2022-12-26T01:33:35;2.75;;;1.35;;
54849;SDS011;47660;51.334;12.396;2022-12-26T01:36:03;2.75;;;1.60;;
54849;SDS011;47660;51.334;12.396;2022-12-26T01:38:31;5.50;;;1.77;;
54849;SDS011;47660;51.334;12.396;2022-12-26T01:40:59;3.30;;;2.03;;
54849;SDS011;47660;51.334;12.396;2022-12-26T01:43:46;2.28;;;1.38;;
54849;SDS011;47660;51.334;12.396;2022-12-26T01:46:15;3.90;;;1.85;;
54849;SDS011;47660;51.334;12.396;2022-12-26T01:48:42;2.00;;;1.30;;
54849;SDS011;47660;51.334;12.396;2022-12-26T01:51:07;2.67;;;1.65;;
54849;SDS011;47660;51.334;12.396;2022-12-26T01:53:35;2.63;;;1.52;;
54849;SDS011;47660;51.334;12.396;2022-12-26T01:56:07;2.05;;;1.50;;
54849;SDS011;47660;51.334;12.396;2022-12-26T01:58:41;2.88;;;1.42;;
54849;SDS011;47660;51.334;12.396;2022-12-26T02:01:13;3.33;;;1.70;;
54849;SDS011;47660;51.334;12.396;2022-12-26T02:03:39;2.50;;;1.63;;
54849;SDS011;47660;51.334;12.396;2022-12-26T02:06:27;2.78;;;1.50;;
54849;SDS011;47660;51.334;12.396;2022-12-26T02:08:53;2.28;;;1.40;;
54849;SDS011;47660;51.334;12.396;2022-12-26T02:11:23;1.85;;;1.38;;
54849;SDS011;47660;51.334;12.396;2022-12-26T02:13:51;1.15;;;0.98;;
54849;SDS011;47660;51.334;12.396;2022-12-26T02:16:18;1.25;;;1.08;;
54849;SDS011;47660;51.334;12.396;2022-12-26T02:18:46;3.05;;;1.65;;
54849;SDS011;47660;51.334;12.396;2022-12-26T02:30:03;2.15;;;1.23;;
54849;SDS011;47660;51.334;12.396;2022-12-26T02:32:37;1.55;;;1.17;;
54849;SDS011;47660;51.334;12.396;2022-12-26T02:35:08;3.08;;;0.85;;
54849;SDS011;47660;51.334;12.396;2022-12-26T02:45:28;1.58;;;1.30;;
54849;SDS011;47660;51.334;12.396;2022-12-26T02:57:11;3.42;;;1.52;;
54849;SDS011;47660;51.334;12.396;2022-12-26T03:00:02;3.85;;;1.33;;
54849;SDS011;47660;51.334;12.396;2022-12-26T03:03:09;1.20;;;1.05;;
54849;SDS011;47660;51.334;12.396;2022-12-26T03:08:51;1.27;;;1.13;;
54849;SDS011;47660;51.334;12.396;2022-12-26T03:11:40;3.13;;;1.33;;
54849;SDS011;47660;51.334;12.396;2022-12-26T03:14:28;3.92;;;0.93;;
54849;SDS011;47660;51.334;12.396;2022-12-26T03:17:01;2.90;;;1.20;;
54849;SDS011;47660;51.334;12.396;2022-12-26T03:20:32;0.90;;;0.90;;
54849;SDS011;47660;51.334;12.396;2022-12-26T03:22:52;2.60;;;1.33;;
54849;SDS011;47660;51.334;12.396;2022-12-26T03:28:19;1.55;;;1.27;;
54849;SDS011;47660;51.334;12.396;2022-12-26T03:30:48;2.10;;;1.42;;
54849;SDS011;47660;51.334;12.396;2022-12-26T03:36:00;2.85;;;1.48;;
54849;SDS011;47660;51.334;12.396;2022-12-26T03:38:52;2.75;;;1.63;;
54849;SDS011;47660;51.334;12.396;2022-12-26T03:41:30;3.28;;;1.58;;
54849;SDS011;47660;51.334;12.396;2022-12-26T03:44:30;1.73;;;1.45;;
54849;SDS011;47660;51.334;12.396;2022-12-26T03:47:24;0.82;;;0.82;;
54849;SDS011;47660;51.334;12.396;2022-12-26T03:53:42;2.05;;;1.45;;
54849;SDS011;47660;51.334;12.396;2022-12-26T03:56:34;2.17;;;1.40;;
54849;SDS011;47660;51.334;12.396;2022-12-26T03:59:29;0.88;;;0.80;;
54849;SDS011;47660;51.334;12.396;2022-12-26T04:02:32;3.53;;;1.15;;
54849;SDS011;47660;51.334;12.396;2022-12-26T04:05:21;3.72;;;1.45;;
54849;SDS011;47660;51.334;12.396;2022-12-26T04:08:12;1.77;;;1.10;;
54849;SDS011;47660;51.334;12.396;2022-12-26T04:10:59;1.75;;;1.30;;
54849;SDS011;47660;51.334;12.396;2022-12-26T04:25:33;1.92;;;1.40;;
54849;SDS011;47660;51.334;12.396;2022-12-26T04:28:21;1.33;;;1.05;;
54849;SDS011;47660;51.334;12.396;2022-12-26T04:31:19;2.47;;;1.02;;
54849;SDS011;47660;51.334;12.396;2022-12-26T04:34:13;1.35;;;1.10;;
54849;SDS011;47660;51.334;12.396;2022-12-26T04:37:04;1.67;;;1.17;;
54849;SDS011;47660;51.334;12.396;2022-12-26T04:39:54;1.73;;;1.08;;
54849;SDS011;47660;51.334;12.396;2022-12-26T04:42:40;1.52;;;1.10;;
54849;SDS011;47660;51.334;12.396;2022-12-26T04:45:27;2.65;;;1.58;;
54849;SDS011;47660;51.334;12.396;2022-12-26T04:47:55;1.15;;;1.00;;
54849;SDS011;47660;51.334;12.396;2022-12-26T04:50:48;2.03;;;1.30;;
54849;SDS011;47660;51.334;12.396;2022-12-26T04:53:19;1.77;;;1.20;;
54849;SDS011;47660;51.334;12.396;2022-12-26T04:55:46;1.77;;;1.13;;
54849;SDS011;47660;51.334;12.396;2022-12-26T04:58:11;2.33;;;1.60;;
54849;SDS011;47660;51.334;12.396;2022-12-26T05:00:37;1.40;;;0.77;;
54849;SDS011;47660;51.334;12.396;2022-12-26T05:03:02;1.23;;;1.08;;
54849;SDS011;47660;51.334;12.396;2022-12-26T05:05:47;3.83;;;1.20;;
54849;SDS011;47660;51.334;12.396;2022-12-26T05:08:41;1.80;;;1.13;;
54849;SDS011;47660;51.334;12.396;2022-12-26T05:11:29;3.53;;;1.50;;
54849;SDS011;47660;51.334;12.396;2022-12-26T05:13:56;1.58;;;1.10;;
54849;SDS011;47660;51.334;12.396;2022-12-26T05:16:26;1.83;;;1.23;;
54849;SDS011;47660;51.334;12.396;2022-12-26T05:19:14;2.70;;;1.33;;
54849;SDS011;47660;51.334;12.396;2022-12-26T05:21:59;2.42;;;1.10;;
54849;SDS011;47660;51.334;12.396;2022-12-26T05:24:45;1.33;;;0.83;;
54849;SDS011;47660;51.334;12.396;2022-12-26T05:27:36;2.58;;;1.25;;
54849;SDS011;47660;51.334;12.396;2022-12-26T05:30:22;1.08;;;0.85;;
54849;SDS011;47660;51.334;12.396;2022-12-26T05:32:48;1.17;;;0.90;;
54849;SDS011;47660;51.334;12.396;2022-12-26T05:35:32;1.75;;;1.02;;
54849;SDS011;47660;51.334;12.396;2022-12-26T05:37:59;1.67;;;1.00;;
54849;SDS011;47660;51.334;12.396;2022-12-26T05:40:27;1.20;;;0.90;;
54849;SDS011;47660;51.334;12.396;2022-12-26T05:42:55;1.20;;;1.05;;
54849;SDS011;47660;51.334;12.396;2022-12-26T05:45:23;1.35;;;0.98;;
54849;SDS011;47660;51.334;12.396;2022-12-26T05:47:48;1.15;;;0.82;;
54849;SDS011;47660;51.334;12.396;2022-12-26T05:50:13;2.60;;;1.35;;
54849;SDS011;47660;51.334;12.396;2022-12-26T05:52:39;2.63;;;1.20;;
54849;SDS011;47660;51.334;12.396;2022-12-26T05:55:04;1.70;;;0.90;;
54849;SDS011;47660;51.334;12.396;2022-12-26T05:57:30;1.85;;;0.98;;
54849;SDS011;47660;51.334;12.396;2022-12-26T05:59:56;1.77;;;1.08;;
54849;SDS011;47660;51.334;12.396;2022-12-26T06:02:24;2.30;;;1.67;;
54849;SDS011;47660;51.334;12.396;2022-12-26T06:04:49;1.45;;;1.00;;
54849;SDS011;47660;51.334;12.396;2022-12-26T06:07:15;1.90;;;1.40;;
54849;SDS011;47660;51.334;12.396;2022-12-26T06:09:42;1.83;;;1.13;;
54849;SDS011;47660;51.334;12.396;2022-12-26T06:12:10;1.45;;;0.75;;
54849;SDS011;47660;51.334;12.396;2022-12-26T06:14:35;2.45;;;1.48;;
54849;SDS011;47660;51.334;12.396;2022-12-26T06:17:01;1.33;;;1.13;;
54849;SDS011;47660;51.334;12.396;2022-12-26T06:19:26;1.50;;;1.05;;
54849;SDS011;47660;51.334;12.396;2022-12-26T06:21:52;2.47;;;1.40;;
54849;SDS011;47660;51.334;12.396;2022-12-26T06:24:17;2.78;;;1.25;;
54849;SDS011;47660;51.334;12.396;2022-12-26T06:26:42;1.90;;;1.27;;
54849;SDS011;47660;51.334;12.396;2022-12-26T06:29:10;2.60;;;1.70;;
54849;SDS011;47660;51.334;12.396;2022-12-26T06:31:36;1.08;;;1.00;;
54849;SDS011;47660;51.334;12.396;2022-12-26T06:34:01;1.50;;;1.08;;
54849;SDS011;47660;51.334;12.396;2022-12-26T06:36:27;1.67;;;1.38;;
54849;SDS011;47660;51.334;12.396;2022-12-26T06:38:55;2.70;;;1.33;;
54849;SDS011;47660;51.334;12.396;2022-12-26T06:41:22;0.70;;;0.52;;
54849;SDS011;47660;51.334;12.396;2022-12-26T06:43:50;2.13;;;1.40;;
54849;SDS011;47660;51.334;12.396;2022-12-26T06:46:18;5.38;;;1.50;;
54849;SDS011;47660;51.334;12.396;2022-12-26T06:48:44;2.42;;;1.45;;
54849;SDS011;47660;51.334;12.396;2022-12-26T06:51:14;4.35;;;1.48;;
54849;SDS011;47660;51.334;12.396;2022-12-26T06:53:41;2.63;;;1.40;;
54849;SDS011;47660;51.334;12.396;2022-12-26T06:56:08;1.88;;;1.05;;
54849;SDS011;47660;51.334;12.396;2022-12-26T06:58:34;2.95;;;0.95;;
54849;SDS011;47660;51.334;12.396;2022-12-26T07:01:33;4.20;;;1.67;;
54849;SDS011;47660;51.334;12.396;2022-12-26T07:03:55;3.28;;;1.27;;
54849;SDS011;47660;51.334;12.396;2022-12-26T07:06:22;3.03;;;1.30;;
54849;SDS011;47660;51.334;12.396;2022-12-26T07:08:51;2.17;;;1.50;;
54849;SDS011;47660;51.334;12.396;2022-12-26T07:11:18;1.75;;;1.20;;
54849;SDS011;47660;51.334;12.396;2022-12-26T07:13:47;2.60;;;1.20;;
54849;SDS011;47660;51.334;12.396;2022-12-26T07:16:12;1.33;;;1.00;;
54849;SDS011;47660;51.334;12.396;2022-12-26T07:18:40;3.08;;;1.40;;
54849;SDS011;47660;51.334;12.396;2022-12-26T07:21:10;1.83;;;1.27;;
54849;SDS011;47660;51.334;12.396;2022-12-26T07:23:38;1.40;;;1.27;;
54849;SDS011;47660;51.334;12.396;2022-12-26T07:26:04;2.50;;;1.40;;
54849;SDS011;47660;51.334;12.396;2022-12-26T07:28:32;1.92;;;1.45;;
54849;SDS011;47660;51.334;12.396;2022-12-26T07:31:00;4.03;;;1.05;;
54849;SDS011;47660;51.334;12.396;2022-12-26T07:33:27;1.88;;;1.20;;
54849;SDS011;47660;51.334;12.396;2022-12-26T07:36:02;1.85;;;1.15;;
54849;SDS011;47660;51.334;12.396;2022-12-26T07:38:29;1.88;;;1.55;;
54849;SDS011;47660;51.334;12.396;2022-12-26T07:40:58;2.67;;;1.02;;
54849;SDS011;47660;51.334;12.396;2022-12-26T07:43:44;2.30;;;1.70;;
54849;SDS011;47660;51.334;12.396;2022-12-26T07:46:11;1.10;;;0.88;;
54849;SDS011;47660;51.334;12.396;2022-12-26T07:48:39;1.90;;;1.30;;
54849;SDS011;47660;51.334;12.396;2022-12-26T07:51:05;2.00;;;1.20;;
54849;SDS011;47660;51.334;12.396;2022-12-26T07:53:30;1.48;;;1.05;;
54849;SDS011;47660;51.334;12.396;2022-12-26T07:55:58;1.70;;;0.98;;
54849;SDS011;47660;51.334;12.396;2022-12-26T07:58:24;1.55;;;1.33;;
54849;SDS011;47660;51.334;12.396;2022-12-26T08:00:49;0.73;;;0.50;;
54849;SDS011;47660;51.334;12.396;2022-12-26T08:03:14;2.28;;;0.93;;
54849;SDS011;47660;51.334;12.396;2022-12-26T08:05:43;1.70;;;1.20;;
54849;SDS011;47660;51.334;12.396;2022-12-26T08:08:12;2.10;;;1.15;;
54849;SDS011;47660;51.334;12.396;2022-12-26T08:10:40;1.17;;;0.85;;
54849;SDS011;47660;51.334;12.396;2022-12-26T08:13:05;1.70;;;1.20;;
54849;SDS011;47660;51.334;12.396;2022-12-26T08:15:31;1.08;;;0.85;;
54849;SDS011;47660;51.334;12.396;2022-12-26T08:17:57;1.00;;;0.70;;
54849;SDS011;47660;51.334;12.396;2022-12-26T08:20:22;2.70;;;1.17;;
54849;SDS011;47660;51.334;12.396;2022-12-26T08:22:47;1.10;;;0.82;;
54849;SDS011;47660;51.334;12.396;2022-12-26T08:25:15;3.10;;;1.40;;
54849;SDS011;47660;51.334;12.396;2022-12-26T08:27:41;1.60;;;1.30;;
54849;SDS011;47660;51.334;12.396;2022-12-26T08:30:06;2.15;;;1.35;;
54849;SDS011;47660;51.334;12.396;2022-12-26T08:32:33;1.30;;;0.88;;
54849;SDS011;47660;51.334;12.396;2022-12-26T08:34:58;1.52;;;0.88;;
54849;SDS011;47660;51.334;12.396;2022-12-26T08:37:23;1.23;;;1.00;;
54849;SDS011;47660;51.334;12.396;2022-12-26T08:39:49;1.30;;;1.10;;
54849;SDS011;47660;51.334;12.396;2022-12-26T08:42:17;1.30;;;0.70;;
54849;SDS011;47660;51.334;12.396;2022-12-26T08:44:46;1.98;;;1.42;;
54849;SDS011;47660;51.334;12.396;2022-12-26T08:47:12;1.23;;;0.65;;
54849;SDS011;47660;51.334;12.396;2022-12-26T08:49:41;1.33;;;0.93;;
54849;SDS011;47660;51.334;12.396;2022-12-26T08:52:07;2.22;;;1.23;;
54849;SDS011;47660;51.334;12.396;2022-12-26T08:54:37;1.25;;;1.10;;
54849;SDS011;47660;51.334;12.396;2022-12-26T08:57:02;0.85;;;0.82;;
54849;SDS011;47660;51.334;12.396;2022-12-26T08:59:27;1.17;;;0.95;;
54849;SDS011;47660;51.334;12.396;2022-12-26T09:01:55;2.42;;;1.40;;
54849;SDS011;47660;51.334;12.396;2022-12-26T09:04:20;1.40;;;1.10;;
54849;SDS011;47660;51.334;12.396;2022-12-26T09:06:46;1.30;;;0.82;;
54849;SDS011;47660;51.334;12.396;2022-12-26T09:09:11;2.72;;;1.35;;
54849;SDS011;47660;51.334;12.396;2022-12-26T09:11:37;1.40;;;1.20;;
54849;SDS011;47660;51.334;12.396;2022-12-26T09:14:07;2.03;;;1.00;;
54849;SDS011;47660;51.334;12.396;2022-12-26T09:16:35;1.40;;;1.10;;
54849;SDS011;47660;51.334;12.396;2022-12-26T09:19:06;1.02;;;0.95;;
54849;SDS011;47660;51.334;12.396;2022-12-26T09:21:35;0.77;;;0.77;;
54849;SDS011;47660;51.334;12.396;2022-12-26T09:24:03;1.05;;;0.85;;
54849;SDS011;47660;51.334;12.396;2022-12-26T09:26:33;3.58;;;1.00;;
54849;SDS011;47660;51.334;12.396;2022-12-26T09:28:59;1.45;;;0.93;;
54849;SDS011;47660;51.334;12.396;2022-12-26T09:31:26;0.68;;;0.40;;
54849;SDS011;47660;51.334;12.396;2022-12-26T09:33:55;3.63;;;0.80;;
54849;SDS011;47660;51.334;12.396;2022-12-26T09:36:22;1.13;;;0.82;;
54849;SDS011;47660;51.334;12.396;2022-12-26T09:38:50;2.00;;;1.50;;
54849;SDS011;47660;51.334;12.396;2022-12-26T09:41:39;2.03;;;1.33;;
54849;SDS011;47660;51.334;12.396;2022-12-26T09:44:15;2.00;;;1.27;;
54849;SDS011;47660;51.334;12.396;2022-12-26T09:49:47;0.38;;;0.38;;
54849;SDS011;47660;51.334;12.396;2022-12-26T09:52:51;1.43;;;0.90;;
54849;SDS011;47660;51.334;12.396;2022-12-26T10:00:55;4.93;;;1.85;;
54849;SDS011;47660;51.334;12.396;2022-12-26T10:03:47;2.38;;;1.30;;
54849;SDS011;47660;51.334;12.396;2022-12-26T10:06:36;3.33;;;1.30;;
54849;SDS011;47660;51.334;12.396;2022-12-26T10:20:34;3.22;;;1.35;;
54849;SDS011;47660;51.334;12.396;2022-12-26T10:26:28;3.35;;;1.50;;
54849;SDS011;47660;51.334;12.396;2022-12-26T10:31:29;2.10;;;1.02;;
54849;SDS011;47660;51.334;12.396;2022-12-26T10:36:46;1.73;;;1.23;;
54849;SDS011;47660;51.334;12.396;2022-12-26T10:41:56;3.72;;;1.60;;
54849;SDS011;47660;51.334;12.396;2022-12-26T10:44:26;2.58;;;1.48;;
54849;SDS011;47660;51.334;12.396;2022-12-26T10:47:15;2.17;;;1.20;;
54849;SDS011;47660;51.334;12.396;2022-12-26T10:49:47;1.95;;;1.30;;
54849;SDS011;47660;51.334;12.396;2022-12-26T10:52:15;2.47;;;1.20;;
54849;SDS011;47660;51.334;12.396;2022-12-26T10:54:44;2.53;;;1.75;;
54849;SDS011;47660;51.334;12.396;2022-12-26T10:57:15;1.90;;;1.25;;
54849;SDS011;47660;51.334;12.396;2022-12-26T10:59:47;2.47;;;1.40;;
54849;SDS011;47660;51.334;12.396;2022-12-26T11:02:26;1.25;;;0.98;;
54849;SDS011;47660;51.334;12.396;2022-12-26T11:05:07;6.40;;;1.40;;
54849;SDS011;47660;51.334;12.396;2022-12-26T11:07:44;2.35;;;1.63;;
54849;SDS011;47660;51.334;12.396;2022-12-26T11:10:21;2.63;;;1.63;;
54849;SDS011;47660;51.334;12.396;2022-12-26T11:12:53;2.50;;;1.15;;
54849;SDS011;47660;51.334;12.396;2022-12-26T11:15:27;1.02;;;0.80;;
54849;SDS011;47660;51.334;12.396;2022-12-26T11:20:42;2.10;;;1.30;;
54849;SDS011;47660;51.334;12.396;2022-12-26T11:23:12;1.48;;;1.25;;
54849;SDS011;47660;51.334;12.396;2022-12-26T11:25:49;3.22;;;1.40;;
54849;SDS011;47660;51.334;12.396;2022-12-26T11:28:34;2.97;;;1.27;;
54849;SDS011;47660;51.334;12.396;2022-12-26T11:31:04;0.95;;;0.73;;
54849;SDS011;47660;51.334;12.396;2022-12-26T11:33:35;1.63;;;0.85;;
54849;SDS011;47660;51.334;12.396;2022-12-26T11:36:19;0.67;;;0.60;;
54849;SDS011;47660;51.334;12.396;2022-12-26T11:38:57;1.33;;;0.80;;
54849;SDS011;47660;51.334;12.396;2022-12-26T11:46:46;1.05;;;0.50;;
54849;SDS011;47660;51.334;12.396;2022-12-26T11:49:34;0.52;;;0.52;;
54849;SDS011;47660;51.334;12.396;2022-12-26T12:19:37;0.20;;;0.20;;
54849;SDS011;47660;51.334;12.396;2022-12-26T12:27:55;0.20;;;0.20;;
54849;SDS011;47660;51.334;12.396;2022-12-26T12:30:23;0.30;;;0.20;;
54849;SDS011;47660;51.334;12.396;2022-12-26T12:43:52;0.17;;;0.17;;
54849;SDS011;47660;51.334;12.396;2022-12-26T13:02:27;0.40;;;0.40;;
54849;SDS011;47660;51.334;12.396;2022-12-26T13:07:49;0.10;;;0.10;;
54849;SDS011;47660;51.334;12.396;2022-12-26T13:10:32;0.38;;;0.30;;
54849;SDS011;47660;51.334;12.396;2022-12-26T13:13:48;0.90;;;0.52;;
54849;SDS011;47660;51.334;12.396;2022-12-26T13:15:59;0.30;;;0.30;;
54849;SDS011;47660;51.334;12.396;2022-12-26T13:18:33;0.77;;;0.30;;
54849;SDS011;47660;51.334;12.396;2022-12-26T13:21:03;0.20;;;0.20;;
54849;SDS011;47660;51.334;12.396;2022-12-26T13:23:39;0.10;;;0.10;;
54849;SDS011;47660;51.334;12.396;2022-12-26T13:26:28;0.30;;;0.30;;
54849;SDS011;47660;51.334;12.396;2022-12-26T13:29:03;0.13;;;0.13;;
54849;SDS011;47660;51.334;12.396;2022-12-26T13:31:36;0.30;;;0.30;;
54849;SDS011;47660;51.334;12.396;2022-12-26T13:34:04;0.20;;;0.20;;
54849;SDS011;47660;51.334;12.396;2022-12-26T13:41:32;0.35;;;0.20;;
54849;SDS011;47660;51.334;12.396;2022-12-26T13:55:28;0.10;;;0.10;;
54849;SDS011;47660;51.334;12.396;2022-12-26T13:57:54;0.30;;;0.30;;
54849;SDS011;47660;51.334;12.396;2022-12-26T14:00:50;1.05;;;0.40;;
54849;SDS011;47660;51.334;12.396;2022-12-26T14:03:22;1.45;;;0.35;;
54849;SDS011;47660;51.334;12.396;2022-12-26T14:06:11;0.30;;;0.30;;
54849;SDS011;47660;51.334;12.396;2022-12-26T14:11:59;0.20;;;0.20;;
54849;SDS011;47660;51.334;12.396;2022-12-26T14:36:24;0.57;;;0.47;;
54849;SDS011;47660;51.334;12.396;2022-12-26T14:44:56;1.38;;;0.43;;
54849;SDS011;47660;51.334;12.396;2022-12-26T14:47:37;0.60;;;0.50;;
54849;SDS011;47660;51.334;12.396;2022-12-26T14:55:47;0.30;;;0.30;;
54849;SDS011;47660;51.334;12.396;2022-12-26T15:00:45;1.02;;;0.60;;
54849;SDS011;47660;51.334;12.396;2022-12-26T15:05:49;0.68;;;0.60;;
54849;SDS011;47660;51.334;12.396;2022-12-26T15:33:57;0.60;;;0.50;;
54849;SDS011;47660;51.334;12.396;2022-12-26T16:00:52;1.17;;;0.60;;
54849;SDS011;47660;51.334;12.396;2022-12-26T16:03:25;0.70;;;0.65;;
54849;SDS011;47660;51.334;12.396;2022-12-26T16:06:13;0.82;;;0.68;;
54849;SDS011;47660;51.334;12.396;2022-12-26T16:12:19;1.27;;;0.75;;
54849;SDS011;47660;51.334;12.396;2022-12-26T16:14:46;1.50;;;0.93;;
54849;SDS011;47660;51.334;12.396;2022-12-26T16:19:38;1.45;;;1.02;;
54849;SDS011;47660;51.334;12.396;2022-12-26T16:22:05;1.67;;;0.77;;
54849;SDS011;47660;51.334;12.396;2022-12-26T16:24:53;1.27;;;1.02;;
54849;SDS011;47660;51.334;12.396;2022-12-26T16:27:22;0.95;;;0.85;;
54849;SDS011;47660;51.334;12.396;2022-12-26T16:29:59;1.73;;;0.98;;
54849;SDS011;47660;51.334;12.396;2022-12-26T16:32:34;2.22;;;1.27;;
54849;SDS011;47660;51.334;12.396;2022-12-26T16:35:02;2.30;;;1.10;;
54849;SDS011;47660;51.334;12.396;2022-12-26T16:37:29;4.10;;;1.10;;
54849;SDS011;47660;51.334;12.396;2022-12-26T16:42:30;3.03;;;1.30;;
54849;SDS011;47660;51.334;12.396;2022-12-26T16:44:56;2.03;;;0.88;;
54849;SDS011;47660;51.334;12.396;2022-12-26T16:47:22;1.33;;;1.02;;
54849;SDS011;47660;51.334;12.396;2022-12-26T16:49:56;0.80;;;0.80;;
54849;SDS011;47660;51.334;12.396;2022-12-26T16:52:33;2.22;;;1.00;;
54849;SDS011;47660;51.334;12.396;2022-12-26T16:58:01;1.65;;;0.90;;
54849;SDS011;47660;51.334;12.396;2022-12-26T17:00:37;2.25;;;1.05;;
54849;SDS011;47660;51.334;12.396;2022-12-26T17:03:03;2.03;;;1.05;;
54849;SDS011;47660;51.334;12.396;2022-12-26T17:05:35;1.98;;;1.17;;
54849;SDS011;47660;51.334;12.396;2022-12-26T17:08:02;1.92;;;1.15;;
54849;SDS011;47660;51.334;12.396;2022-12-26T17:10:30;1.35;;;1.00;;
54849;SDS011;47660;51.334;12.396;2022-12-26T17:13:01;2.10;;;1.48;;
54849;SDS011;47660;51.334;12.396;2022-12-26T17:15:33;2.25;;;1.17;;
54849;SDS011;47660;51.334;12.396;2022-12-26T17:21:47;2.10;;;1.30;;
54849;SDS011;47660;51.334;12.396;2022-12-26T17:24:30;1.13;;;0.93;;
54849;SDS011;47660;51.334;12.396;2022-12-26T17:26:51;1.55;;;1.10;;
54849;SDS011;47660;51.334;12.396;2022-12-26T17:29:36;1.45;;;0.93;;
54849;SDS011;47660;51.334;12.396;2022-12-26T17:32:30;1.45;;;1.08;;
54849;SDS011;47660;51.334;12.396;2022-12-26T17:35:03;2.35;;;1.50;;
54849;SDS011;47660;51.334;12.396;2022-12-26T17:37:40;1.90;;;1.40;;
54849;SDS011;47660;51.334;12.396;2022-12-26T17:42:43;1.70;;;1.08;;
54849;SDS011;47660;51.334;12.396;2022-12-26T17:45:16;1.67;;;0.90;;
54849;SDS011;47660;51.334;12.396;2022-12-26T17:47:44;1.05;;;0.95;;
54849;SDS011;47660;51.334;12.396;2022-12-26T17:50:10;2.63;;;1.70;;
54849;SDS011;47660;51.334;12.396;2022-12-26T17:52:36;2.42;;;1.70;;
54849;SDS011;47660;51.334;12.396;2022-12-26T17:55:04;2.33;;;1.25;;
54849;SDS011;47660;51.334;12.396;2022-12-26T17:57:39;1.88;;;1.08;;
54849;SDS011;47660;51.334;12.396;2022-12-26T18:00:09;2.08;;;1.15;;
54849;SDS011;47660;51.334;12.396;2022-12-26T18:02:39;1.75;;;1.10;;
54849;SDS011;47660;51.334;12.396;2022-12-26T18:05:07;1.40;;;1.00;;
54849;SDS011;47660;51.334;12.396;2022-12-26T18:07:33;2.17;;;1.25;;
54849;SDS011;47660;51.334;12.396;2022-12-26T18:09:59;5.22;;;1.10;;
54849;SDS011;47660;51.334;12.396;2022-12-26T18:12:27;1.20;;;1.10;;
54849;SDS011;47660;51.334;12.396;2022-12-26T18:14:53;1.15;;;1.02;;
54849;SDS011;47660;51.334;12.396;2022-12-26T18:17:18;1.27;;;0.65;;
54849;SDS011;47660;51.334;12.396;2022-12-26T18:19:44;0.95;;;0.68;;
54849;SDS011;47660;51.334;12.396;2022-12-26T18:22:15;0.75;;;0.50;;
54849;SDS011;47660;51.334;12.396;2022-12-26T18:24:45;0.50;;;0.30;;
54849;SDS011;47660;51.334;12.396;2022-12-26T18:27:17;0.47;;;0.47;;
54849;SDS011;47660;51.334;12.396;2022-12-26T18:29:45;0.40;;;0.25;;
54849;SDS011;47660;51.334;12.396;2022-12-26T18:32:17;0.40;;;0.40;;
54849;SDS011;47660;51.334;12.396;2022-12-26T18:37:12;0.50;;;0.50;;
54849;SDS011;47660;51.334;12.396;2022-12-26T18:39:38;0.70;;;0.47;;
54849;SDS011;47660;51.334;12.396;2022-12-26T18:42:09;0.30;;;0.30;;
54849;SDS011;47660;51.334;12.396;2022-12-26T18:44:36;0.40;;;0.40;;
54849;SDS011;47660;51.334;12.396;2022-12-26T18:47:02;0.85;;;0.60;;
54849;SDS011;47660;51.334;12.396;2022-12-26T18:49:27;2.35;;;0.80;;
54849;SDS011;47660;51.334;12.396;2022-12-26T18:51:52;2.17;;;1.10;;
54849;SDS011;47660;51.334;12.396;2022-12-26T18:54:20;2.08;;;0.75;;
54849;SDS011;47660;51.334;12.396;2022-12-26T18:56:45;0.63;;;0.55;;
54849;SDS011;47660;51.334;12.396;2022-12-26T18:59:13;1.00;;;0.55;;
54849;SDS011;47660;51.334;12.396;2022-12-26T19:01:39;1.58;;;0.45;;
54849;SDS011;47660;51.334;12.396;2022-12-26T19:04:04;0.93;;;0.80;;
54849;SDS011;47660;51.334;12.396;2022-12-26T19:06:30;5.32;;;0.82;;
54849;SDS011;47660;51.334;12.396;2022-12-26T19:08:59;3.15;;;0.88;;
54849;SDS011;47660;51.334;12.396;2022-12-26T19:11:25;2.40;;;1.10;;
54849;SDS011;47660;51.334;12.396;2022-12-26T19:13:53;0.77;;;0.63;;
54849;SDS011;47660;51.334;12.396;2022-12-26T19:16:23;1.35;;;1.00;;
54849;SDS011;47660;51.334;12.396;2022-12-26T19:18:48;3.17;;;1.30;;
54849;SDS011;47660;51.334;12.396;2022-12-26T19:21:15;4.65;;;1.20;;
54849;SDS011;47660;51.334;12.396;2022-12-26T19:23:41;0.77;;;0.55;;
54849;SDS011;47660;51.334;12.396;2022-12-26T19:26:10;2.33;;;1.33;;
54849;SDS011;47660;51.334;12.396;2022-12-26T19:28:38;1.77;;;1.08;;
54849;SDS011;47660;51.334;12.396;2022-12-26T19:31:05;2.20;;;1.20;;
54849;SDS011;47660;51.334;12.396;2022-12-26T19:33:36;4.07;;;1.40;;
54849;SDS011;47660;51.334;12.396;2022-12-26T19:36:04;2.17;;;1.15;;
54849;SDS011;47660;51.334;12.396;2022-12-26T19:38:30;2.83;;;2.00;;
54849;SDS011;47660;51.334;12.396;2022-12-26T19:41:00;2.40;;;1.30;;